createdAt,value
2023-04-29T00:02:53.619Z,1010.87
2023-04-29T00:07:52.851Z,1010.91
2023-04-29T00:12:50.992Z,1010.91
2023-04-29T00:17:52.239Z,1010.96
2023-04-29T00:22:50.377Z,1011.04
2023-04-29T00:27:48.550Z,1011.23
2023-04-29T00:32:48.743Z,1011.23
2023-04-29T00:37:46.890Z,1011.10
2023-04-29T00:42:47.024Z,1011.00
2023-04-29T00:47:45.254Z,1011.07
2023-04-29T00:52:45.398Z,1011.08
2023-04-29T00:57:44.567Z,1011.12
2023-04-29T01:02:42.755Z,1011.06
2023-04-29T01:07:42.938Z,1011.11
2023-04-29T01:12:41.114Z,1010.96
2023-04-29T01:17:40.350Z,1011.07
2023-04-29T01:22:40.594Z,1011.14
2023-04-29T01:27:38.748Z,1011.00
2023-04-29T01:32:39.930Z,1010.85
2023-04-29T01:37:37.254Z,1010.96
2023-04-29T01:42:38.429Z,1011.45
2023-04-29T01:47:35.609Z,1011.19
2023-04-29T01:52:34.713Z,1011.44
2023-04-29T01:57:33.839Z,1011.18
2023-04-29T02:02:33.073Z,1011.08
2023-04-29T02:07:33.220Z,1011.03
2023-04-29T02:12:31.558Z,1011.17
2023-04-29T02:17:30.730Z,1011.22
2023-04-29T02:22:29.869Z,1011.19
2023-04-29T02:27:29.010Z,1011.32
2023-04-29T02:32:31.425Z,1011.29
2023-04-29T02:37:28.518Z,1011.36
2023-04-29T02:42:26.795Z,1011.27
2023-04-29T02:47:26.130Z,1011.09
2023-04-29T02:52:26.214Z,1011.10
2023-04-29T02:57:24.495Z,1011.09
2023-04-29T03:02:23.858Z,1011.08
2023-04-29T03:07:22.937Z,1011.06
2023-04-29T03:12:21.151Z,1011.10
2023-04-29T03:17:21.275Z,1011.18
2023-04-29T03:22:20.616Z,1011.15
2023-04-29T03:27:19.960Z,1011.07
2023-04-29T03:32:20.105Z,1011.03
2023-04-29T03:37:18.444Z,1011.03
2023-04-29T03:42:18.588Z,1010.95
2023-04-29T03:47:16.744Z,1011.05
2023-04-29T03:52:15.915Z,1010.98
2023-04-29T03:57:16.072Z,1010.93
2023-04-29T04:02:14.276Z,1010.94
2023-04-29T04:07:13.421Z,1010.92
2023-04-29T04:12:13.798Z,1010.78
2023-04-29T04:17:11.967Z,1010.92
2023-04-29T04:22:12.882Z,1010.89
2023-04-29T04:27:10.327Z,1011.00
2023-04-29T04:32:09.584Z,1011.15
2023-04-29T04:37:08.811Z,1011.09
2023-04-29T04:42:07.983Z,1011.10
2023-04-29T04:47:07.080Z,1011.23
2023-04-29T04:52:07.413Z,1011.42
2023-04-29T04:57:06.739Z,1011.55
2023-04-29T05:02:06.165Z,1011.49
2023-04-29T05:07:05.297Z,1011.55
2023-04-29T05:12:04.443Z,1011.54
2023-04-29T05:17:02.697Z,1011.58
2023-04-29T05:22:02.844Z,1011.63
2023-04-29T05:27:02.161Z,1011.62
2023-04-29T05:32:02.483Z,1011.69
2023-04-29T05:36:59.829Z,1011.80
2023-04-29T05:41:58.996Z,1011.76
2023-04-29T05:46:58.138Z,1011.78
2023-04-29T05:51:58.297Z,1011.74
2023-04-29T05:56:57.436Z,1011.91
2023-04-29T06:01:55.562Z,1011.94
2023-04-29T06:06:55.742Z,1011.94
2023-04-29T06:11:53.928Z,1011.99
2023-04-29T06:16:53.075Z,1011.95
2023-04-29T06:21:51.244Z,1012.02
2023-04-29T06:26:51.403Z,1012.12
2023-04-29T06:31:50.603Z,1012.17
2023-04-29T06:36:51.780Z,1012.15
2023-04-29T06:41:48.927Z,1012.15
2023-04-29T06:46:48.139Z,1012.08
2023-04-29T06:51:48.288Z,1012.07
2023-04-29T06:56:47.452Z,1012.01
2023-04-29T07:01:49.578Z,1012.08
2023-04-29T07:06:44.859Z,1012.11
2023-04-29T07:11:45.970Z,1012.02
2023-04-29T07:16:43.390Z,1012.06
2023-04-29T07:21:43.528Z,1012.04
2023-04-29T07:26:42.877Z,1012.00
2023-04-29T07:31:42.207Z,1011.96
2023-04-29T07:36:40.346Z,1011.94
2023-04-29T07:41:39.490Z,1011.93
2023-04-29T07:46:40.847Z,1011.92
2023-04-29T07:51:39.872Z,1011.91
2023-04-29T07:56:38.015Z,1011.94
2023-04-29T08:01:37.162Z,1011.95
2023-04-29T08:06:35.326Z,1011.97
2023-04-29T08:11:36.487Z,1011.97
2023-04-29T08:16:33.676Z,1011.98
2023-04-29T08:21:32.817Z,1011.89
2023-04-29T08:26:31.997Z,1011.90
2023-04-29T08:31:32.165Z,1011.89
2023-04-29T08:36:30.324Z,1011.84
2023-04-29T08:41:29.603Z,1011.82
2023-04-29T08:46:28.788Z,1011.87
2023-04-29T08:51:28.957Z,1011.88
2023-04-29T08:56:28.047Z,1011.88
2023-04-29T09:01:28.436Z,1011.85
2023-04-29T09:06:25.585Z,1011.79
2023-04-29T09:11:24.886Z,1011.71
2023-04-29T09:16:24.178Z,1011.69
2023-04-29T09:21:24.442Z,1011.68
2023-04-29T09:26:23.710Z,1011.65
2023-04-29T09:31:23.032Z,1011.59
2023-04-29T09:36:23.140Z,1011.54
2023-04-29T09:41:20.511Z,1011.47
2023-04-29T09:46:19.587Z,1011.51
2023-04-29T09:51:18.841Z,1011.44
2023-04-29T09:56:19.162Z,1011.43
2023-04-29T10:01:19.478Z,1011.46
2023-04-29T10:06:17.758Z,1011.47
2023-04-29T10:11:16.030Z,1011.47
2023-04-29T10:16:15.361Z,1011.43
2023-04-29T10:21:18.785Z,1011.38
2023-04-29T10:26:13.848Z,1011.43
2023-04-29T10:31:13.169Z,1011.45
2023-04-29T10:36:13.434Z,1011.50
2023-04-29T10:41:11.697Z,1011.47
2023-04-29T10:46:10.980Z,1011.46
2023-04-29T10:51:10.291Z,1011.45
2023-04-29T10:56:10.554Z,1011.36
2023-04-29T11:01:08.870Z,1011.29
2023-04-29T11:06:09.177Z,1011.28
2023-04-29T11:11:07.453Z,1011.07
2023-04-29T11:16:06.764Z,1011.09
2023-04-29T11:21:07.054Z,1011.02
2023-04-29T11:26:06.382Z,1011.09
2023-04-29T11:31:06.684Z,1010.98
2023-04-29T11:36:03.972Z,1010.99
2023-04-29T11:41:03.244Z,1010.96
2023-04-29T11:46:04.556Z,1010.93
2023-04-29T11:51:01.672Z,1010.88
2023-04-29T11:56:00.908Z,1010.88
2023-04-29T12:01:00.182Z,1010.77
2023-04-29T12:05:59.513Z,1010.73
2023-04-29T12:10:58.790Z,1010.69
2023-04-29T12:15:58.100Z,1010.74
2023-04-29T12:20:57.360Z,1010.68
2023-04-29T12:25:56.643Z,1010.68
2023-04-29T12:30:55.932Z,1010.64
2023-04-29T12:35:57.203Z,1010.52
2023-04-29T12:40:54.468Z,1010.53
2023-04-29T12:45:53.781Z,1010.51
2023-04-29T12:50:53.074Z,1010.54
2023-04-29T12:55:52.370Z,1010.50
2023-04-29T13:00:51.761Z,1010.48
2023-04-29T13:05:50.883Z,1010.47
2023-04-29T13:10:50.187Z,1010.45
2023-04-29T13:15:50.459Z,1010.40
2023-04-29T13:20:52.932Z,1010.38
2023-04-29T13:25:47.975Z,1010.30
2023-04-29T13:30:48.248Z,1010.27
2023-04-29T13:35:47.503Z,1010.25
2023-04-29T13:40:46.996Z,1010.26
2023-04-29T13:45:48.148Z,1010.24
2023-04-29T13:51:06.199Z,1010.17
2023-04-29T14:05:41.999Z,1010.19
2023-04-29T14:10:42.141Z,1010.29
2023-04-29T14:15:42.423Z,1010.32
2023-04-29T14:20:40.678Z,1010.37
2023-04-29T14:25:38.977Z,1010.35
2023-04-29T14:30:39.255Z,1010.41
2023-04-29T14:35:39.550Z,1010.46
2023-04-29T14:40:37.803Z,1010.52
2023-04-29T14:45:36.086Z,1010.69
2023-04-29T14:50:35.272Z,1010.70
2023-04-29T14:55:34.559Z,1010.73
2023-04-29T15:00:34.825Z,1010.84
2023-04-29T15:05:33.121Z,1011.07
2023-04-29T15:10:32.414Z,1011.02
2023-04-29T15:15:31.700Z,1010.97
2023-04-29T15:20:30.961Z,1011.12
2023-04-29T15:25:30.266Z,1011.07
2023-04-29T15:30:30.560Z,1011.13
2023-04-29T15:35:28.797Z,1011.21
2023-04-29T15:40:30.067Z,1011.27
2023-04-29T15:45:28.387Z,1011.33
2023-04-29T15:50:27.657Z,1011.35
2023-04-29T15:55:25.900Z,1011.35
2023-04-29T16:00:25.164Z,1011.30
2023-04-29T16:05:24.419Z,1011.30
2023-04-29T16:10:23.671Z,1011.24
2023-04-29T16:15:22.944Z,1011.27
2023-04-29T16:20:22.210Z,1011.32
2023-04-29T16:25:21.454Z,1011.34
2023-04-29T16:30:21.712Z,1011.39
2023-04-29T16:35:19.916Z,1011.39
2023-04-29T16:40:19.170Z,1011.42
2023-04-29T16:45:20.532Z,1011.39
2023-04-29T16:50:17.663Z,1011.53
2023-04-29T16:55:16.930Z,1011.53
2023-04-29T17:00:16.187Z,1011.52
2023-04-29T17:05:16.456Z,1011.53
2023-04-29T17:10:14.698Z,1011.48
2023-04-29T17:15:13.993Z,1011.50
2023-04-29T17:20:13.266Z,1011.51
2023-04-29T17:25:14.540Z,1011.51
2023-04-29T17:30:12.799Z,1011.53
2023-04-29T17:35:10.046Z,1011.56
2023-04-29T17:40:09.353Z,1011.63
2023-04-29T17:45:10.826Z,1011.61
2023-04-29T17:50:11.085Z,1011.74
2023-04-29T17:55:09.233Z,1011.81
2023-04-29T18:00:07.538Z,1011.88
2023-04-29T18:05:07.822Z,1011.96
2023-04-29T18:10:07.286Z,1011.97
2023-04-29T18:15:06.414Z,1012.01
2023-04-29T18:20:04.966Z,1012.05
2023-04-29T18:25:05.051Z,1012.15
2023-04-29T18:30:03.260Z,1012.26
2023-04-29T18:35:02.347Z,1012.34
2023-04-29T18:40:01.784Z,1012.46
2023-04-29T18:45:01.148Z,1012.55
2023-04-29T18:50:00.082Z,1012.60
2023-04-29T18:55:00.595Z,1012.67
2023-04-29T18:59:58.670Z,1012.78
2023-04-29T19:04:58.332Z,1012.72
2023-04-29T19:09:58.308Z,1012.87
2023-04-29T19:14:57.476Z,1012.94
2023-04-29T19:19:55.945Z,1012.96
2023-04-29T19:24:56.233Z,1012.98
2023-04-29T19:29:55.452Z,1013.01
2023-04-29T19:34:53.474Z,1013.09
2023-04-29T19:39:54.238Z,1013.06
2023-04-29T19:44:53.229Z,1013.08
2023-04-29T19:49:52.752Z,1013.20
2023-04-29T19:54:50.566Z,1013.19
2023-04-29T19:59:49.625Z,1013.27
2023-04-29T20:04:50.216Z,1013.28
2023-04-29T20:09:48.140Z,1013.33
2023-04-29T20:14:47.764Z,1013.43
2023-04-29T20:19:47.698Z,1013.36
2023-04-29T20:24:45.946Z,1013.37
2023-04-29T20:29:49.333Z,1013.44
2023-04-29T20:34:44.663Z,1013.42
2023-04-29T20:39:44.604Z,1013.49
2023-04-29T20:44:45.021Z,1013.48
2023-04-29T20:49:42.076Z,1013.49
2023-04-29T20:54:42.334Z,1013.54
2023-04-29T20:59:40.619Z,1013.62
2023-04-29T21:04:39.961Z,1013.56
2023-04-29T21:09:41.230Z,1013.55
2023-04-29T21:14:40.881Z,1013.48
2023-04-29T21:19:36.876Z,1013.55
2023-04-29T21:24:37.989Z,1013.55
2023-04-29T21:29:37.270Z,1013.53
2023-04-29T21:34:36.532Z,1013.51
2023-04-29T21:39:34.792Z,1013.56
2023-04-29T21:44:35.158Z,1013.58
2023-04-29T21:49:34.392Z,1013.55
2023-04-29T21:54:33.710Z,1013.58
2023-04-29T21:59:34.015Z,1013.49
2023-04-29T22:04:31.281Z,1013.56
2023-04-29T22:09:30.624Z,1013.56
2023-04-29T22:14:30.706Z,1013.54
2023-04-29T22:19:29.971Z,1013.56
2023-04-29T22:24:30.203Z,1013.57
2023-04-29T22:29:27.437Z,1013.63
2023-04-29T22:34:26.698Z,1013.53
2023-04-29T22:39:26.020Z,1013.48
2023-04-29T22:44:25.279Z,1013.53
2023-04-29T22:49:24.563Z,1013.57
2023-04-29T22:54:23.845Z,1013.58
2023-04-29T22:59:24.128Z,1013.64
2023-04-29T23:04:23.459Z,1013.63
2023-04-29T23:09:21.649Z,1013.68
2023-04-29T23:14:20.793Z,1013.73
2023-04-29T23:19:20.201Z,1013.72
2023-04-29T23:24:20.378Z,1013.68
2023-04-29T23:29:20.525Z,1013.68
2023-04-29T23:34:19.662Z,1013.76
2023-04-29T23:39:16.987Z,1013.85
2023-04-29T23:44:16.113Z,1013.80
2023-04-29T23:49:17.273Z,1013.76
2023-04-29T23:54:14.585Z,1013.81
2023-04-29T23:59:15.966Z,1013.73
